createdAt,value
2023-05-18T00:00:02.955Z,6.94
2023-05-18T00:02:31.553Z,7.16
2023-05-18T00:05:02.016Z,6.73
2023-05-18T00:07:33.941Z,6.73
2023-05-18T00:10:01.593Z,7.05
2023-05-18T00:12:28.439Z,6.67
2023-05-18T00:14:55.069Z,7.11
2023-05-18T00:17:21.819Z,7.03
2023-05-18T00:19:50.327Z,6.50
2023-05-18T00:22:20.020Z,7.02
2023-05-18T00:24:47.968Z,6.58
2023-05-18T00:27:15.171Z,6.99
2023-05-18T00:29:41.952Z,6.94
2023-05-18T00:32:09.197Z,7.01
2023-05-18T00:34:37.113Z,6.95
2023-05-18T00:37:03.865Z,6.96
2023-05-18T00:39:30.536Z,6.95
2023-05-18T00:41:57.120Z,7.00
2023-05-18T00:44:24.444Z,6.92
2023-05-18T00:46:51.007Z,6.90
2023-05-18T00:49:17.868Z,6.23
2023-05-18T00:51:45.820Z,6.27
2023-05-18T00:54:12.549Z,6.14
2023-05-18T00:56:41.882Z,6.82
2023-05-18T00:59:12.294Z,6.69
2023-05-18T01:01:43.766Z,6.73
2023-05-18T01:04:14.126Z,6.49
2023-05-18T01:06:41.972Z,6.78
2023-05-18T01:09:13.616Z,6.62
2023-05-18T01:11:46.035Z,6.76
2023-05-18T01:14:33.411Z,6.78
2023-05-18T01:17:06.988Z,6.76
2023-05-18T01:19:51.862Z,6.77
2023-05-18T01:22:31.363Z,6.59
2023-05-18T01:25:04.868Z,6.72
2023-05-18T01:27:37.490Z,6.60
2023-05-18T01:30:08.148Z,6.66
2023-05-18T01:32:42.439Z,6.65
2023-05-18T01:35:09.501Z,6.32
2023-05-18T01:37:36.035Z,6.55
2023-05-18T01:40:05.469Z,6.56
2023-05-18T01:42:37.823Z,6.56
2023-05-18T01:45:13.574Z,6.38
2023-05-18T01:47:45.114Z,6.43
2023-05-18T01:50:18.473Z,6.53
2023-05-18T01:52:53.788Z,6.52
2023-05-18T01:55:21.671Z,6.48
2023-05-18T01:57:51.520Z,6.38
2023-05-18T02:00:20.191Z,6.44
2023-05-18T02:02:47.521Z,6.43
2023-05-18T02:05:16.714Z,6.31
2023-05-18T02:07:47.413Z,6.19
2023-05-18T02:10:14.708Z,5.88
2023-05-18T02:12:41.660Z,6.22
2023-05-18T02:15:09.591Z,5.83
2023-05-18T02:17:39.678Z,6.37
2023-05-18T02:20:07.753Z,6.15
2023-05-18T02:22:35.109Z,6.39
2023-05-18T02:25:02.610Z,6.33
2023-05-18T02:27:30.107Z,5.74
2023-05-18T02:29:56.829Z,5.82
2023-05-18T02:32:23.802Z,6.21
2023-05-18T02:34:53.791Z,6.29
2023-05-18T02:37:23.089Z,6.23
2023-05-18T02:39:50.162Z,6.37
2023-05-18T02:42:16.747Z,6.34
2023-05-18T02:44:43.769Z,5.91
2023-05-18T02:47:13.801Z,6.23
2023-05-18T02:49:40.541Z,6.29
2023-05-18T02:52:07.310Z,5.78
2023-05-18T02:54:34.001Z,6.35
2023-05-18T02:57:02.209Z,6.31
2023-05-18T02:59:44.566Z,6.25
2023-05-18T03:02:14.333Z,6.28
2023-05-18T03:04:41.753Z,6.29
2023-05-18T03:07:10.521Z,6.13
2023-05-18T03:09:37.982Z,5.65
2023-05-18T03:12:05.759Z,6.14
2023-05-18T03:14:32.616Z,6.05
2023-05-18T03:16:59.307Z,6.17
2023-05-18T03:19:27.411Z,6.15
2023-05-18T03:21:54.263Z,6.04
2023-05-18T03:24:21.408Z,5.82
2023-05-18T03:26:49.602Z,5.93
2023-05-18T03:29:16.436Z,6.01
2023-05-18T03:31:43.524Z,5.86
2023-05-18T03:34:11.448Z,5.40
2023-05-18T03:36:38.443Z,6.07
2023-05-18T03:39:08.534Z,6.03
2023-05-18T03:41:35.513Z,5.86
2023-05-18T03:44:02.589Z,6.00
2023-05-18T03:46:31.023Z,5.43
2023-05-18T03:48:57.947Z,5.91
2023-05-18T03:51:31.843Z,5.92
2023-05-18T03:53:59.665Z,5.46
2023-05-18T03:56:26.393Z,5.88
2023-05-18T03:58:53.037Z,6.07
2023-05-18T04:01:19.674Z,6.10
2023-05-18T04:03:46.382Z,6.03
2023-05-18T04:06:13.982Z,6.01
2023-05-18T04:08:42.105Z,6.10
2023-05-18T04:11:09.294Z,6.15
2023-05-18T04:13:38.125Z,6.05
2023-05-18T04:16:05.149Z,5.29
2023-05-18T04:18:32.115Z,6.34
2023-05-18T04:21:00.374Z,5.98
2023-05-18T04:23:28.451Z,6.41
2023-05-18T04:25:56.255Z,6.44
2023-05-18T04:28:23.304Z,5.74
2023-05-18T04:30:49.914Z,6.70
2023-05-18T04:33:16.639Z,6.63
2023-05-18T04:35:44.656Z,6.71
2023-05-18T04:38:11.508Z,6.73
2023-05-18T04:40:42.472Z,6.85
2023-05-18T04:43:10.504Z,6.90
2023-05-18T04:45:38.258Z,7.13
2023-05-18T04:48:05.596Z,7.21
2023-05-18T04:50:32.307Z,7.31
2023-05-18T04:53:02.011Z,7.23
2023-05-18T04:55:31.014Z,7.37
2023-05-18T04:58:03.061Z,7.46
2023-05-18T05:00:30.375Z,7.11
2023-05-18T05:02:58.575Z,7.70
2023-05-18T05:05:25.977Z,7.70
2023-05-18T05:07:53.838Z,7.79
2023-05-18T05:10:20.895Z,7.93
2023-05-18T05:12:49.580Z,8.05
2023-05-18T05:15:17.198Z,8.03
2023-05-18T05:17:43.976Z,8.15
2023-05-18T05:20:10.991Z,7.98
2023-05-18T05:22:37.888Z,8.35
2023-05-18T05:25:07.367Z,8.07
2023-05-18T05:27:34.346Z,8.41
2023-05-18T05:30:02.272Z,8.56
2023-05-18T05:32:30.333Z,8.57
2023-05-18T05:34:57.043Z,8.51
2023-05-18T05:37:26.020Z,8.58
2023-05-18T05:39:53.359Z,8.61
2023-05-18T05:42:19.977Z,7.61
2023-05-18T05:44:47.232Z,8.90
2023-05-18T05:47:13.935Z,8.71
2023-05-18T05:49:42.111Z,9.30
2023-05-18T05:52:08.805Z,9.57
2023-05-18T05:54:35.817Z,9.79
2023-05-18T05:57:03.838Z,10.04
2023-05-18T05:59:30.629Z,10.27
2023-05-18T06:01:58.867Z,10.21
2023-05-18T06:04:26.784Z,10.41
2023-05-18T06:06:54.095Z,10.46
2023-05-18T06:09:21.286Z,10.13
2023-05-18T06:11:48.907Z,10.01
2023-05-18T06:14:15.606Z,10.05
2023-05-18T06:16:42.372Z,10.02
2023-05-18T06:19:09.093Z,10.14
2023-05-18T06:21:35.887Z,9.89
2023-05-18T06:24:05.073Z,10.23
2023-05-18T06:26:40.764Z,10.00
2023-05-18T06:29:24.864Z,10.20
2023-05-18T06:32:17.718Z,10.22
2023-05-18T06:34:52.673Z,10.26
2023-05-18T06:37:20.626Z,10.09
2023-05-18T06:39:47.338Z,10.74
2023-05-18T06:42:13.920Z,11.00
2023-05-18T06:44:51.337Z,11.11
2023-05-18T06:47:19.766Z,11.41
2023-05-18T06:49:47.268Z,11.69
2023-05-18T06:52:14.598Z,11.42
2023-05-18T06:54:43.228Z,11.87
2023-05-18T06:57:10.190Z,11.73
2023-05-18T06:59:36.847Z,12.56
2023-05-18T07:02:04.781Z,12.80
2023-05-18T07:04:31.914Z,12.93
2023-05-18T07:06:58.569Z,12.94
2023-05-18T07:09:25.678Z,12.75
2023-05-18T07:11:52.288Z,12.76
2023-05-18T07:14:18.893Z,13.61
2023-05-18T07:16:47.288Z,13.91
2023-05-18T07:19:15.147Z,14.40
2023-05-18T07:21:42.209Z,14.65
2023-05-18T07:24:08.865Z,14.67
2023-05-18T07:26:35.442Z,14.89
2023-05-18T07:29:02.044Z,14.90
2023-05-18T07:31:28.747Z,14.67
2023-05-18T07:33:55.435Z,14.84
2023-05-18T07:36:22.138Z,14.70
2023-05-18T07:38:54.737Z,14.89
2023-05-18T07:41:22.892Z,15.16
2023-05-18T07:43:51.494Z,15.12
2023-05-18T07:46:19.148Z,15.45
2023-05-18T07:48:46.301Z,15.67
2023-05-18T07:51:13.256Z,15.44
2023-05-18T07:53:40.931Z,15.86
2023-05-18T07:56:08.642Z,16.07
2023-05-18T07:58:36.501Z,16.19
2023-05-18T08:01:03.622Z,15.92
2023-05-18T08:03:30.233Z,16.30
2023-05-18T08:05:56.808Z,16.39
2023-05-18T08:08:24.425Z,16.46
2023-05-18T08:10:52.114Z,16.57
2023-05-18T08:13:19.044Z,16.44
2023-05-18T08:15:50.841Z,16.68
2023-05-18T08:18:23.041Z,16.92
2023-05-18T08:20:49.697Z,16.97
2023-05-18T08:23:16.273Z,17.47
2023-05-18T08:25:42.830Z,17.85
2023-05-18T08:28:09.395Z,18.43
2023-05-18T08:30:36.018Z,18.90
2023-05-18T08:33:03.109Z,19.16
2023-05-18T08:35:30.054Z,18.93
2023-05-18T08:37:57.590Z,19.34
2023-05-18T08:40:32.557Z,19.52
2023-05-18T08:43:03.520Z,19.14
2023-05-18T08:45:40.229Z,19.41
2023-05-18T08:48:07.991Z,19.37
2023-05-18T08:50:36.044Z,19.07
2023-05-18T08:53:05.992Z,18.82
2023-05-18T08:55:37.102Z,18.68
2023-05-18T08:58:07.283Z,18.58
2023-05-18T09:00:34.735Z,18.31
2023-05-18T09:03:04.103Z,18.22
2023-05-18T09:05:31.680Z,18.74
2023-05-18T09:07:59.291Z,18.79
2023-05-18T09:10:26.144Z,18.61
2023-05-18T09:12:56.908Z,19.07
2023-05-18T09:15:25.301Z,19.32
2023-05-18T09:17:52.497Z,19.20
2023-05-18T09:20:19.811Z,18.87
2023-05-18T09:22:46.937Z,18.71
2023-05-18T09:25:15.837Z,19.37
2023-05-18T09:27:42.845Z,19.36
2023-05-18T09:30:12.726Z,18.96
2023-05-18T09:32:39.403Z,18.77
2023-05-18T09:35:09.496Z,18.18
2023-05-18T09:37:36.404Z,18.61
2023-05-18T09:40:06.228Z,19.04
2023-05-18T09:42:40.045Z,19.14
2023-05-18T09:45:26.605Z,18.74
2023-05-18T09:47:53.970Z,19.35
2023-05-18T09:50:25.284Z,19.50
2023-05-18T09:52:52.203Z,20.17
2023-05-18T09:55:20.189Z,20.06
2023-05-18T09:57:51.584Z,20.52
2023-05-18T10:00:21.156Z,21.03
2023-05-18T10:02:52.200Z,20.77
2023-05-18T10:05:23.219Z,20.73
2023-05-18T10:07:54.539Z,20.95
2023-05-18T10:10:23.574Z,21.06
2023-05-18T10:12:54.810Z,20.06
2023-05-18T10:15:23.626Z,20.63
2023-05-18T10:17:55.225Z,20.78
2023-05-18T10:20:24.434Z,21.11
2023-05-18T10:22:52.410Z,20.85
2023-05-18T10:25:21.060Z,21.31
2023-05-18T10:27:50.665Z,21.33
2023-05-18T10:30:17.922Z,21.60
2023-05-18T10:32:45.762Z,22.04
2023-05-18T10:35:13.792Z,22.19
2023-05-18T10:37:47.284Z,22.20
2023-05-18T10:40:15.552Z,21.97
2023-05-18T10:42:43.481Z,20.90
2023-05-18T10:45:13.223Z,21.87
2023-05-18T10:47:42.498Z,22.40
2023-05-18T10:50:09.945Z,22.40
2023-05-18T10:52:42.936Z,22.44
2023-05-18T10:55:09.612Z,22.16
2023-05-18T10:57:53.880Z,22.44
2023-05-18T11:00:20.729Z,22.20
2023-05-18T11:02:49.858Z,22.04
2023-05-18T11:05:24.484Z,21.88
2023-05-18T11:07:53.984Z,22.42
2023-05-18T11:10:20.598Z,22.13
2023-05-18T11:12:47.149Z,22.66
2023-05-18T11:15:13.731Z,22.39
2023-05-18T11:17:40.308Z,22.54
2023-05-18T11:20:06.842Z,22.60
2023-05-18T11:22:42.566Z,22.46
2023-05-18T11:25:09.822Z,22.22
2023-05-18T11:27:36.521Z,21.81
2023-05-18T11:30:14.802Z,21.24
2023-05-18T11:32:51.565Z,22.12
2023-05-18T11:35:24.032Z,22.36
2023-05-18T11:37:50.745Z,22.66
2023-05-18T11:40:45.112Z,23.18
2023-05-18T11:43:20.984Z,22.94
2023-05-18T11:45:59.382Z,23.18
2023-05-18T11:48:30.335Z,23.27
2023-05-18T11:50:57.316Z,22.96
2023-05-18T11:53:25.748Z,23.63
2023-05-18T11:55:54.714Z,24.04
2023-05-18T11:58:24.458Z,23.97
2023-05-18T12:00:51.872Z,23.86
2023-05-18T12:03:24.779Z,23.21
2023-05-18T12:05:51.785Z,23.68
2023-05-18T12:08:19.355Z,23.53
2023-05-18T12:10:47.284Z,23.77
2023-05-18T12:13:16.906Z,23.86
2023-05-18T12:15:44.649Z,23.57
2023-05-18T12:18:11.503Z,23.44
2023-05-18T12:20:41.017Z,22.66
2023-05-18T12:23:07.789Z,23.03
2023-05-18T12:25:34.544Z,23.02
2023-05-18T12:28:02.103Z,22.76
2023-05-18T12:30:34.828Z,22.21
2023-05-18T12:33:03.186Z,21.74
2023-05-18T12:35:31.535Z,22.47
2023-05-18T12:38:02.857Z,22.19
2023-05-18T12:40:48.814Z,21.70
2023-05-18T12:43:15.616Z,21.61
2023-05-18T12:45:44.336Z,21.38
2023-05-18T12:48:11.898Z,20.74
2023-05-18T12:50:49.114Z,20.62
2023-05-18T12:53:17.493Z,21.06
2023-05-18T12:55:44.309Z,20.85
2023-05-18T12:58:19.176Z,20.54
2023-05-18T13:00:47.516Z,20.19
2023-05-18T13:03:24.680Z,20.85
2023-05-18T13:06:05.274Z,20.80
2023-05-18T13:08:33.358Z,20.61
2023-05-18T13:11:13.655Z,21.08
2023-05-18T13:14:10.683Z,20.91
2023-05-18T13:16:44.511Z,20.88
2023-05-18T13:19:11.498Z,21.15
2023-05-18T13:21:39.060Z,20.99
2023-05-18T13:24:05.973Z,21.31
2023-05-18T13:26:32.984Z,21.24
2023-05-18T13:29:00.337Z,21.80
2023-05-18T13:31:29.336Z,22.40
2023-05-18T13:33:56.288Z,23.04
2023-05-18T13:36:23.351Z,23.14
2023-05-18T13:38:49.995Z,23.37
2023-05-18T13:41:16.617Z,22.94
2023-05-18T13:43:43.285Z,23.20
2023-05-18T13:46:10.091Z,23.55
2023-05-18T13:48:36.913Z,23.33
2023-05-18T13:51:03.720Z,23.52
2023-05-18T13:53:30.531Z,23.39
2023-05-18T13:55:57.083Z,23.62
2023-05-18T13:58:23.823Z,22.89
2023-05-18T14:00:50.518Z,23.33
2023-05-18T14:03:17.705Z,23.57
2023-05-18T14:05:44.568Z,23.37
2023-05-18T14:08:11.196Z,23.26
2023-05-18T14:10:37.775Z,23.62
2023-05-18T14:13:04.401Z,24.11
2023-05-18T14:15:30.966Z,23.94
2023-05-18T14:17:57.606Z,24.51
2023-05-18T14:20:24.212Z,24.13
2023-05-18T14:22:50.937Z,23.97
2023-05-18T14:25:17.607Z,23.83
2023-05-18T14:27:44.527Z,24.02
2023-05-18T14:30:11.531Z,24.42
2023-05-18T14:32:38.183Z,24.74
2023-05-18T14:35:05.202Z,25.25
2023-05-18T14:37:32.992Z,25.89
2023-05-18T14:39:59.839Z,26.40
2023-05-18T14:42:26.588Z,27.11
2023-05-18T14:44:53.213Z,27.57
2023-05-18T14:47:19.799Z,28.66
2023-05-18T14:49:46.383Z,28.23
2023-05-18T14:52:13.019Z,28.05
2023-05-18T14:54:40.314Z,28.01
2023-05-18T14:57:06.867Z,27.22
2023-05-18T14:59:33.602Z,26.78
2023-05-18T15:02:00.568Z,25.62
2023-05-18T15:04:27.238Z,25.39
2023-05-18T15:06:53.856Z,25.25
2023-05-18T15:09:20.425Z,24.43
2023-05-18T15:11:47.100Z,23.80
2023-05-18T15:14:13.637Z,23.11
2023-05-18T15:16:40.338Z,23.40
2023-05-18T15:19:07.018Z,22.88
2023-05-18T15:21:33.860Z,22.50
2023-05-18T15:24:00.424Z,22.92
2023-05-18T15:26:27.587Z,22.77
2023-05-18T15:28:54.270Z,22.47
2023-05-18T15:31:20.981Z,22.66
2023-05-18T15:33:47.712Z,22.95
2023-05-18T15:36:14.333Z,23.38
2023-05-18T15:38:41.145Z,23.91
2023-05-18T15:41:07.966Z,24.51
2023-05-18T15:43:36.485Z,24.35
2023-05-18T15:46:03.259Z,24.59
2023-05-18T15:48:29.856Z,24.85
2023-05-18T15:50:56.425Z,25.08
2023-05-18T15:53:23.198Z,24.99
2023-05-18T15:55:50.871Z,24.43
2023-05-18T15:58:17.487Z,24.27
2023-05-18T16:00:44.155Z,24.40
2023-05-18T16:03:10.955Z,24.52
2023-05-18T16:05:37.697Z,24.61
2023-05-18T16:08:04.369Z,24.45
2023-05-18T16:10:31.355Z,23.91
2023-05-18T16:13:05.519Z,24.12
2023-05-18T16:15:35.601Z,24.07
2023-05-18T16:18:02.586Z,23.40
2023-05-18T16:20:29.784Z,22.88
2023-05-18T16:22:56.974Z,22.54
2023-05-18T16:25:24.015Z,22.29
2023-05-18T16:27:50.725Z,22.04
2023-05-18T16:30:17.402Z,21.07
2023-05-18T16:32:44.418Z,20.85
2023-05-18T16:35:11.414Z,20.27
2023-05-18T16:37:38.515Z,19.78
2023-05-18T16:40:06.320Z,20.03
2023-05-18T16:42:32.952Z,19.74
2023-05-18T16:44:59.892Z,19.54
2023-05-18T16:47:27.610Z,18.57
2023-05-18T16:49:54.438Z,19.47
2023-05-18T16:52:21.437Z,19.25
2023-05-18T16:54:48.232Z,19.06
2023-05-18T16:57:15.169Z,18.60
2023-05-18T16:59:42.497Z,19.07
2023-05-18T17:02:13.210Z,19.24
2023-05-18T17:04:45.839Z,19.49
2023-05-18T17:07:12.787Z,19.36
2023-05-18T17:09:41.418Z,19.00
2023-05-18T17:12:11.690Z,18.42
2023-05-18T17:14:38.816Z,18.50
2023-05-18T17:17:06.122Z,18.39
2023-05-18T17:19:34.768Z,18.16
2023-05-18T17:22:01.698Z,17.96
2023-05-18T17:24:28.327Z,17.79
2023-05-18T17:26:54.977Z,17.47
2023-05-18T17:29:21.978Z,17.41
2023-05-18T17:31:48.901Z,17.17
2023-05-18T17:34:15.707Z,17.05
2023-05-18T17:36:42.619Z,16.84
2023-05-18T17:39:09.313Z,16.78
2023-05-18T17:41:36.379Z,16.21
2023-05-18T17:44:03.318Z,16.55
2023-05-18T17:46:30.657Z,16.52
2023-05-18T17:48:57.276Z,16.41
2023-05-18T17:51:24.690Z,16.31
2023-05-18T17:53:51.615Z,16.20
2023-05-18T17:56:18.452Z,16.08
2023-05-18T17:58:45.164Z,15.96
2023-05-18T18:01:12.247Z,15.89
2023-05-18T18:03:39.316Z,15.62
2023-05-18T18:06:06.739Z,15.80
2023-05-18T18:08:33.725Z,15.05
2023-05-18T18:11:00.574Z,15.57
2023-05-18T18:13:27.225Z,15.56
2023-05-18T18:15:53.857Z,15.42
2023-05-18T18:18:21.249Z,15.23
2023-05-18T18:20:47.829Z,15.09
2023-05-18T18:23:15.630Z,14.73
2023-05-18T18:25:43.485Z,14.95
2023-05-18T18:28:14.561Z,15.03
2023-05-18T18:30:44.016Z,14.92
2023-05-18T18:33:11.353Z,14.88
2023-05-18T18:35:38.089Z,14.15
2023-05-18T18:38:04.925Z,14.54
2023-05-18T18:40:31.996Z,14.00
2023-05-18T18:42:58.776Z,14.19
2023-05-18T18:45:26.867Z,14.03
2023-05-18T18:47:53.454Z,13.82
2023-05-18T18:50:20.104Z,13.81
2023-05-18T18:52:46.769Z,13.73
2023-05-18T18:55:13.565Z,13.02
2023-05-18T18:57:40.134Z,12.87
2023-05-18T19:00:10.982Z,13.20
2023-05-18T19:02:38.563Z,13.04
2023-05-18T19:05:05.700Z,12.93
2023-05-18T19:07:32.675Z,12.17
2023-05-18T19:09:59.533Z,12.72
2023-05-18T19:12:26.119Z,12.63
2023-05-18T19:14:52.694Z,12.36
2023-05-18T19:17:19.442Z,12.39
2023-05-18T19:19:46.028Z,12.27
2023-05-18T19:22:14.352Z,11.59
2023-05-18T19:24:41.210Z,12.05
2023-05-18T19:27:07.857Z,11.47
2023-05-18T19:29:37.357Z,11.26
2023-05-18T19:32:04.753Z,11.70
2023-05-18T19:34:31.440Z,11.71
2023-05-18T19:36:58.008Z,11.59
2023-05-18T19:39:24.591Z,11.46
2023-05-18T19:41:51.155Z,11.45
2023-05-18T19:44:17.692Z,11.35
2023-05-18T19:46:44.337Z,11.14
2023-05-18T19:49:11.112Z,10.87
2023-05-18T19:51:38.063Z,10.94
2023-05-18T19:54:04.804Z,10.75
2023-05-18T19:56:31.545Z,10.80
2023-05-18T19:58:58.334Z,10.77
2023-05-18T20:01:25.636Z,10.80
2023-05-18T20:03:52.291Z,10.69
2023-05-18T20:06:19.923Z,10.64
2023-05-18T20:08:46.648Z,9.95
2023-05-18T20:11:14.701Z,10.57
2023-05-18T20:13:43.685Z,10.36
2023-05-18T20:16:10.346Z,10.39
2023-05-18T20:18:37.515Z,9.19
2023-05-18T20:21:04.289Z,9.81
2023-05-18T20:23:30.922Z,10.15
2023-05-18T20:25:57.570Z,10.17
2023-05-18T20:28:26.257Z,9.95
2023-05-18T20:30:52.851Z,10.08
2023-05-18T20:33:20.337Z,9.64
2023-05-18T20:35:46.928Z,9.95
2023-05-18T20:38:13.653Z,10.03
2023-05-18T20:40:41.513Z,10.14
2023-05-18T20:43:09.961Z,9.75
2023-05-18T20:45:36.655Z,10.06
2023-05-18T20:48:04.504Z,10.20
2023-05-18T20:50:33.592Z,10.31
2023-05-18T20:53:00.629Z,10.19
2023-05-18T20:55:27.510Z,10.13
2023-05-18T20:57:54.052Z,9.91
2023-05-18T21:00:21.602Z,10.31
2023-05-18T21:02:48.518Z,10.19
2023-05-18T21:05:16.236Z,9.91
2023-05-18T21:07:43.730Z,9.81
2023-05-18T21:10:11.274Z,9.77
2023-05-18T21:12:38.230Z,10.37
2023-05-18T21:15:05.319Z,10.30
2023-05-18T21:17:32.140Z,9.79
2023-05-18T21:19:59.199Z,10.49
2023-05-18T21:22:25.951Z,10.43
2023-05-18T21:24:52.590Z,10.41
2023-05-18T21:27:19.172Z,10.55
2023-05-18T21:29:45.747Z,10.44
2023-05-18T21:32:12.519Z,10.50
2023-05-18T21:34:41.086Z,10.53
2023-05-18T21:37:09.544Z,10.53
2023-05-18T21:39:36.190Z,9.43
2023-05-18T21:42:03.779Z,10.35
2023-05-18T21:44:30.360Z,10.45
2023-05-18T21:46:57.921Z,10.14
2023-05-18T21:49:24.812Z,10.57
2023-05-18T21:51:51.627Z,10.38
2023-05-18T21:54:18.217Z,10.52
2023-05-18T21:56:44.912Z,10.30
2023-05-18T21:59:11.601Z,10.46
2023-05-18T22:01:38.173Z,10.52
2023-05-18T22:04:04.809Z,10.44
2023-05-18T22:06:31.542Z,9.91
2023-05-18T22:08:58.175Z,9.93
2023-05-18T22:11:24.874Z,10.28
2023-05-18T22:13:51.423Z,10.35
2023-05-18T22:16:18.091Z,10.44
2023-05-18T22:18:44.831Z,10.49
2023-05-18T22:21:11.673Z,10.39
2023-05-18T22:23:39.160Z,9.98
2023-05-18T22:26:06.005Z,10.29
2023-05-18T22:28:32.797Z,10.12
2023-05-18T22:30:59.388Z,10.30
2023-05-18T22:33:26.025Z,10.29
2023-05-18T22:35:52.653Z,10.27
2023-05-18T22:38:19.257Z,10.15
2023-05-18T22:40:46.109Z,9.73
2023-05-18T22:43:12.682Z,9.62
2023-05-18T22:45:39.427Z,10.13
2023-05-18T22:48:06.293Z,10.20
2023-05-18T22:50:33.364Z,10.19
2023-05-18T22:53:02.359Z,10.21
2023-05-18T22:55:29.015Z,10.24
2023-05-18T22:57:55.611Z,10.18
2023-05-18T23:00:22.637Z,10.29
2023-05-18T23:02:49.271Z,10.22
2023-05-18T23:05:17.121Z,10.15
2023-05-18T23:07:43.932Z,10.20
2023-05-18T23:10:11.837Z,9.67
2023-05-18T23:12:38.715Z,10.15
2023-05-18T23:15:06.030Z,9.85
2023-05-18T23:17:33.561Z,10.22
2023-05-18T23:20:06.799Z,10.13
2023-05-18T23:22:37.214Z,9.66
2023-05-18T23:25:08.399Z,10.06
2023-05-18T23:27:35.367Z,9.55
2023-05-18T23:30:01.971Z,10.01
2023-05-18T23:32:28.954Z,9.57
2023-05-18T23:34:57.748Z,9.94
2023-05-18T23:37:24.700Z,9.95
2023-05-18T23:39:52.092Z,9.38
2023-05-18T23:42:20.402Z,9.82
2023-05-18T23:44:48.592Z,9.71
2023-05-18T23:47:16.534Z,9.82
2023-05-18T23:49:44.766Z,9.34
2023-05-18T23:52:13.542Z,9.76
2023-05-18T23:54:40.819Z,9.82
2023-05-18T23:57:08.171Z,9.83
2023-05-18T23:59:34.917Z,9.69
